Time;durP1;ratioP1;P1;durP2;ratioP2;P2;SDS_P1;SDS_P2;PMS_P1;PMS_P2;Temp;Humidity;BMP_temperature;BMP_pressure;BME280_temperature;BME280_humidity;BME280_pressure;Samples;Min_cycle;Max_cycle;Signal;HPM_P1;HPM_P2
2021/12/05 00:17:38;;;;;;;20.13;9.75;;;;;;;;;;5091780;28;20052;-35
2021/12/05 00:22:41;;;;;;;;;;;;;;;;;;5102447;28;19989;-35
2021/12/05 00:25:09;;;;;;;12.23;7.80;;;;;;;;;;5095252;28;19916;-37
2021/12/05 00:27:42;;;;;;;13.23;7.38;;;;;;;;;;5071665;28;20044;-34
2021/12/05 00:30:33;;;;;;;20.37;11.13;;;;;;;;;;5077208;28;20623;-35
2021/12/05 00:33:30;;;;;;;18.92;8.10;;;;;;;;;;5110778;28;20373;-35
2021/12/05 00:42:02;;;;;;;16.05;8.07;;;;;;;;;;5106363;28;20038;-35
2021/12/05 01:15:29;;;;;;;15.68;9.15;;;;;;;;;;5054835;28;20049;-29
2021/12/05 01:20:27;;;;;;;14.88;7.97;;;;;;;;;;5053391;28;20044;-29
2021/12/05 01:23:00;;;;;;;14.70;8.13;;;;;;;;;;5053531;28;20072;-29
2021/12/05 01:33:30;;;;;;;14.18;8.23;;;;;;;;;;5012037;28;20049;-29
2021/12/05 01:38:58;;;;;;;12.90;7.93;;;;;;;;;;5052881;28;20044;-30
2021/12/05 02:11:20;;;;;;;21.45;12.60;;;;;;;;;;5052704;28;20517;-28
2021/12/05 02:29:36;;;;;;;25.45;15.85;;;;;;;;;;5052602;28;20426;-30
2021/12/05 02:32:58;;;;;;;24.67;15.93;;;;;;;;;;5052604;28;20462;-30
2021/12/05 02:43:28;;;;;;;32.53;17.08;;;;;;;;;;5051898;28;20083;-29
2021/12/05 02:45:58;;;;;;;;;;;;;;;;;;5052092;28;20045;-30
2021/12/05 02:48:27;;;;;;;26.92;16.58;;;;;;;;;;5052111;28;20361;-28
2021/12/05 02:50:54;;;;;;;34.70;17.80;;;;;;;;;;5051729;28;20049;-28
2021/12/05 02:53:29;;;;;;;34.03;17.20;;;;;;;;;;5051612;28;20055;-28
2021/12/05 02:55:56;;;;;;;30.67;16.13;;;;;;;;;;5052046;28;20037;-30
2021/12/05 03:01:09;;;;;;;29.58;16.60;;;;;;;;;;5051932;28;20501;-29
2021/12/05 03:03:35;;;;;;;30.17;16.05;;;;;;;;;;5051145;28;20422;-29
2021/12/05 03:06:23;;;;;;;34.00;17.42;;;;;;;;;;5051623;28;20033;-30
2021/12/05 03:08:51;;;;;;;33.25;16.52;;;;;;;;;;5051571;28;20102;-28
2021/12/05 03:11:18;;;;;;;28.27;15.88;;;;;;;;;;5051465;28;20049;-28
2021/12/05 03:13:44;;;;;;;29.10;15.70;;;;;;;;;;5051880;28;20127;-30
2021/12/05 03:16:12;;;;;;;21.40;14.25;;;;;;;;;;5045752;28;20545;-29
2021/12/05 03:18:38;;;;;;;24.52;14.60;;;;;;;;;;5043373;28;20041;-33
2021/12/05 03:21:07;;;;;;;25.15;14.98;;;;;;;;;;5040238;28;20128;-30
2021/12/05 03:23:35;;;;;;;27.45;14.23;;;;;;;;;;5031702;28;20072;-36
2021/12/05 03:26:01;;;;;;;26.02;14.02;;;;;;;;;;5030269;28;20091;-35
2021/12/05 03:28:27;;;;;;;19.95;12.57;;;;;;;;;;5039609;28;20389;-32
2021/12/05 03:30:53;;;;;;;22.20;13.65;;;;;;;;;;5032093;28;20247;-32
2021/12/05 03:33:19;;;;;;;24.75;13.13;;;;;;;;;;5043077;28;20029;-34
2021/12/05 03:35:48;;;;;;;18.45;12.63;;;;;;;;;;5040706;28;20052;-33
2021/12/05 03:38:14;;;;;;;16.92;11.65;;;;;;;;;;5028890;28;20047;-33
2021/12/05 03:40:40;;;;;;;20.77;12.55;;;;;;;;;;5039076;28;20495;-32
2021/12/05 03:43:08;;;;;;;22.60;12.25;;;;;;;;;;5028224;28;20107;-34
2021/12/05 03:45:37;;;;;;;20.25;11.60;;;;;;;;;;5034912;28;20033;-33
2021/12/05 03:48:04;;;;;;;19.42;11.68;;;;;;;;;;5027215;28;20041;-33
2021/12/05 03:50:30;;;;;;;18.02;10.45;;;;;;;;;;5032347;28;20037;-35
2021/12/05 03:52:58;;;;;;;17.58;10.82;;;;;;;;;;5038634;28;20047;-35
2021/12/05 03:55:24;;;;;;;23.35;10.98;;;;;;;;;;5038586;28;20048;-33
2021/12/05 03:57:50;;;;;;;16.58;10.93;;;;;;;;;;5032071;28;20041;-33
2021/12/05 04:00:24;;;;;;;19.50;9.68;;;;;;;;;;5041571;28;20036;-34
2021/12/05 04:02:51;;;;;;;18.77;10.13;;;;;;;;;;5048240;28;20086;-33
2021/12/05 04:05:17;;;;;;;17.58;9.80;;;;;;;;;;5043305;28;20604;-34
2021/12/05 04:07:43;;;;;;;17.80;9.40;;;;;;;;;;5037047;28;20038;-32
2021/12/05 04:10:10;;;;;;;19.75;9.05;;;;;;;;;;5036271;28;20044;-33
2021/12/05 04:12:36;;;;;;;16.30;9.60;;;;;;;;;;5043745;28;20040;-33
2021/12/05 04:15:03;;;;;;;16.13;8.60;;;;;;;;;;5042436;28;20041;-32
2021/12/05 04:17:29;;;;;;;17.45;8.48;;;;;;;;;;5032090;28;20041;-34
2021/12/05 04:19:55;;;;;;;15.57;8.57;;;;;;;;;;5043797;28;20044;-33
2021/12/05 04:22:22;;;;;;;18.20;9.02;;;;;;;;;;5041021;28;20037;-32
2021/12/05 04:24:48;;;;;;;20.02;8.75;;;;;;;;;;5042115;28;20048;-35
2021/12/05 04:27:15;;;;;;;14.68;7.80;;;;;;;;;;5050606;28;20045;-34
2021/12/05 04:29:41;;;;;;;21.25;8.77;;;;;;;;;;5040128;28;20041;-34
2021/12/05 04:32:08;;;;;;;15.45;7.88;;;;;;;;;;5035986;28;20038;-35
2021/12/05 04:34:34;;;;;;;15.65;8.27;;;;;;;;;;5035783;28;20053;-33
2021/12/05 04:37:00;;;;;;;15.75;8.18;;;;;;;;;;5044841;28;20098;-33
2021/12/05 04:39:27;;;;;;;14.98;7.65;;;;;;;;;;5026413;28;20068;-35
2021/12/05 04:41:53;;;;;;;16.25;8.35;;;;;;;;;;5045724;28;20112;-33
2021/12/05 04:44:21;;;;;;;17.08;8.15;;;;;;;;;;5039205;28;20059;-32
2021/12/05 04:46:47;;;;;;;16.10;8.40;;;;;;;;;;5042694;28;20040;-32
2021/12/05 04:49:14;;;;;;;17.67;8.02;;;;;;;;;;5038087;28;20551;-34
2021/12/05 04:51:41;;;;;;;13.88;7.53;;;;;;;;;;5051302;28;20405;-32
2021/12/05 04:54:08;;;;;;;14.93;7.78;;;;;;;;;;5047698;28;20123;-33
2021/12/05 04:56:34;;;;;;;14.70;7.63;;;;;;;;;;5049474;28;20044;-32
2021/12/05 04:59:01;;;;;;;19.33;7.90;;;;;;;;;;5035102;28;20040;-33
2021/12/05 05:01:31;;;;;;;17.08;7.97;;;;;;;;;;5042453;28;20034;-35
2021/12/05 05:03:58;;;;;;;15.07;7.60;;;;;;;;;;5033301;28;20033;-33
2021/12/05 05:06:27;;;;;;;13.65;7.43;;;;;;;;;;5050463;28;20041;-35
2021/12/05 05:08:54;;;;;;;17.08;7.93;;;;;;;;;;5035015;28;20095;-35
2021/12/05 05:11:22;;;;;;;16.50;8.20;;;;;;;;;;5039843;28;20124;-33
2021/12/05 05:13:49;;;;;;;16.80;7.90;;;;;;;;;;5039737;28;20099;-33
2021/12/05 05:16:16;;;;;;;16.02;8.20;;;;;;;;;;5035338;28;20505;-33
2021/12/05 05:18:48;;;;;;;14.85;8.07;;;;;;;;;;5033730;28;20049;-32
2021/12/05 05:21:35;;;;;;;16.02;8.43;;;;;;;;;;5034129;28;20052;-33
2021/12/05 05:24:25;;;;;;;17.13;8.10;;;;;;;;;;5038915;28;20041;-33
2021/12/05 05:41:01;;;;;;;17.50;7.82;;;;;;;;;;5039261;28;20558;-32
2021/12/05 05:43:39;;;;;;;17.23;8.65;;;;;;;;;;5045835;28;20044;-33
2021/12/05 05:46:10;;;;;;;20.03;8.70;;;;;;;;;;5040087;28;20560;-33
2021/12/05 05:48:52;;;;;;;17.23;8.00;;;;;;;;;;5012181;28;20053;-32
2021/12/05 05:51:18;;;;;;;19.55;8.15;;;;;;;;;;5047386;28;20414;-32
2021/12/05 05:53:48;;;;;;;18.35;8.00;;;;;;;;;;5031088;28;20084;-34
2021/12/05 05:56:18;;;;;;;19.20;9.02;;;;;;;;;;5035810;28;20048;-34
2021/12/05 05:58:58;;;;;;;21.55;10.13;;;;;;;;;;5042195;28;20059;-32
2021/12/05 06:04:02;;;;;;;19.17;8.80;;;;;;;;;;5043509;28;20486;-34
2021/12/05 06:06:30;;;;;;;16.23;9.55;;;;;;;;;;5048009;28;20036;-32
2021/12/05 06:08:57;;;;;;;18.85;8.73;;;;;;;;;;5035863;28;20052;-36
2021/12/05 06:11:23;;;;;;;19.70;8.38;;;;;;;;;;5046535;28;20087;-33
2021/12/05 06:13:50;;;;;;;19.10;8.55;;;;;;;;;;5035780;28;20069;-32
2021/12/05 06:16:16;;;;;;;18.92;8.98;;;;;;;;;;5031860;28;20048;-36
2021/12/05 06:18:43;;;;;;;23.38;8.77;;;;;;;;;;5045468;28;20044;-32
2021/12/05 06:21:09;;;;;;;22.02;9.77;;;;;;;;;;5050177;28;20040;-30
2021/12/05 06:23:36;;;;;;;22.48;12.15;;;;;;;;;;5045079;28;20389;-29
2021/12/05 06:26:02;;;;;;;15.60;8.93;;;;;;;;;;5045446;28;20406;-31
2021/12/05 06:28:39;;;;;;;20.98;10.18;;;;;;;;;;5046746;28;20516;-31
2021/12/05 06:39:26;;;;;;;20.42;9.45;;;;;;;;;;5030327;28;20041;-32
2021/12/05 06:47:18;;;;;;;15.02;9.48;;;;;;;;;;5016744;28;20041;-31
2021/12/05 06:49:44;;;;;;;19.45;10.23;;;;;;;;;;5032725;28;20049;-30
2021/12/05 06:55:47;;;;;;;18.40;10.65;;;;;;;;;;4956663;28;20085;-32
2021/12/05 06:58:13;;;;;;;20.55;11.35;;;;;;;;;;5043343;28;20124;-32
2021/12/05 07:00:39;;;;;;;18.73;10.57;;;;;;;;;;5041092;28;20507;-31
2021/12/05 07:03:07;;;;;;;18.95;10.82;;;;;;;;;;5034949;28;20061;-32
2021/12/05 07:08:00;;;;;;;26.98;13.30;;;;;;;;;;5046648;28;20099;-30
2021/12/05 07:10:27;;;;;;;18.70;11.15;;;;;;;;;;5038721;28;20108;-31
2021/12/05 07:21:25;;;;;;;23.73;12.52;;;;;;;;;;5040348;28;20510;-33
2021/12/05 07:24:18;;;;;;;25.27;12.25;;;;;;;;;;5036613;28;20102;-33
2021/12/05 07:40:42;;;;;;;18.80;11.50;;;;;;;;;;5042623;28;20049;-37
2021/12/05 07:43:09;;;;;;;20.50;11.88;;;;;;;;;;5027910;28;20060;-34
2021/12/05 07:45:45;;;;;;;21.80;11.68;;;;;;;;;;5044231;28;20489;-33
2021/12/05 07:48:18;;;;;;;24.92;13.07;;;;;;;;;;5042604;28;20040;-36
2021/12/05 07:50:52;;;;;;;24.55;11.07;;;;;;;;;;5043055;28;20079;-34
2021/12/05 07:53:25;;;;;;;16.73;11.32;;;;;;;;;;5044966;28;20080;-33
2021/12/05 07:55:55;;;;;;;26.30;13.00;;;;;;;;;;5042727;28;20444;-33
2021/12/05 07:58:48;;;;;;;20.67;12.35;;;;;;;;;;5037673;28;20072;-34
2021/12/05 08:15:10;;;;;;;26.83;15.82;;;;;;;;;;5033058;28;20091;-34
2021/12/05 08:17:36;;;;;;;;;;;;;;;;;;5024678;28;20041;-34
2021/12/05 08:20:05;;;;;;;20.63;13.05;;;;;;;;;;5035370;28;19936;-34
2021/12/05 08:22:31;;;;;;;19.33;11.95;;;;;;;;;;5032614;28;20045;-33
2021/12/05 08:25:00;;;;;;;28.88;17.85;;;;;;;;;;5039932;28;20371;-35
2021/12/05 08:27:27;;;;;;;31.45;17.10;;;;;;;;;;5039136;28;20077;-35
2021/12/05 08:29:56;;;;;;;30.58;17.27;;;;;;;;;;5036069;28;20143;-32
2021/12/05 08:32:46;;;;;;;27.00;16.23;;;;;;;;;;5032632;28;20516;-34
2021/12/05 08:35:25;;;;;;;29.65;18.65;;;;;;;;;;5043442;28;20405;-33
2021/12/05 10:15:22;;;;;;;14.85;8.05;;;;;;;;;;5042150;28;20045;-35
2021/12/05 10:34:55;;;;;;;14.60;8.10;;;;;;;;;;5041419;28;20056;-33
2021/12/05 10:37:24;;;;;;;15.02;7.75;;;;;;;;;;5043346;28;20067;-34
2021/12/05 10:40:05;;;;;;;13.82;7.78;;;;;;;;;;5044330;28;20414;-33
2021/12/05 10:42:41;;;;;;;13.60;8.45;;;;;;;;;;5048651;28;20071;-33
2021/12/05 10:45:09;;;;;;;10.23;8.13;;;;;;;;;;5045695;28;20058;-33
2021/12/05 10:47:45;;;;;;;15.65;8.95;;;;;;;;;;5045321;28;20094;-32
2021/12/05 10:53:29;;;;;;;21.15;8.77;;;;;;;;;;5045586;28;20060;-32
2021/12/05 10:55:55;;;;;;;17.05;7.40;;;;;;;;;;5044044;28;20079;-37
2021/12/05 10:58:23;;;;;;;12.65;7.97;;;;;;;;;;5041132;28;20064;-32
2021/12/05 11:00:49;;;;;;;11.73;7.43;;;;;;;;;;5047183;28;20077;-32
2021/12/05 11:03:16;;;;;;;15.05;7.80;;;;;;;;;;5044162;28;20070;-32
2021/12/05 11:05:43;;;;;;;15.75;8.35;;;;;;;;;;5040678;28;20038;-32
2021/12/05 11:08:28;;;;;;;13.13;7.70;;;;;;;;;;5025492;28;20650;-33
2021/12/05 11:11:11;;;;;;;11.50;7.72;;;;;;;;;;5040297;28;20402;-32
2021/12/05 11:13:38;;;;;;;14.77;7.07;;;;;;;;;;5041892;28;20068;-32
2021/12/05 11:16:08;;;;;;;10.80;7.60;;;;;;;;;;5043945;28;20120;-34
2021/12/05 11:18:44;;;;;;;8.85;6.68;;;;;;;;;;5043895;28;20075;-34
2021/12/05 11:21:34;;;;;;;12.52;6.50;;;;;;;;;;5042702;28;20500;-33
2021/12/05 11:24:10;;;;;;;11.52;7.13;;;;;;;;;;5042817;28;20037;-32
2021/12/05 11:26:36;;;;;;;11.82;7.80;;;;;;;;;;5040152;28;20034;-32
2021/12/05 11:29:02;;;;;;;16.10;10.18;;;;;;;;;;5043401;28;20048;-34
2021/12/05 11:31:31;;;;;;;12.55;8.73;;;;;;;;;;5040866;28;20047;-32
2021/12/05 11:33:57;;;;;;;12.00;7.97;;;;;;;;;;5041753;28;20375;-33
2021/12/05 11:36:24;;;;;;;10.57;7.80;;;;;;;;;;5040532;28;20037;-34
2021/12/05 11:38:50;;;;;;;11.93;8.82;;;;;;;;;;5025789;28;20049;-32
2021/12/05 11:44:40;;;;;;;10.82;6.40;;;;;;;;;;5043810;28;20226;-31
2021/12/05 11:47:19;;;;;;;8.63;6.20;;;;;;;;;;5045943;28;20083;-31
2021/12/05 11:49:49;;;;;;;7.90;5.85;;;;;;;;;;5043868;28;20051;-31
2021/12/05 11:52:21;;;;;;;7.15;6.28;;;;;;;;;;5044350;28;20478;-31
2021/12/05 11:54:47;;;;;;;7.68;5.57;;;;;;;;;;5045649;28;20394;-31
2021/12/05 11:57:19;;;;;;;9.85;6.53;;;;;;;;;;5045705;28;20033;-30
2021/12/05 11:59:45;;;;;;;6.70;5.60;;;;;;;;;;5037269;28;20068;-31
2021/12/05 12:02:14;;;;;;;8.80;5.68;;;;;;;;;;5033754;28;20029;-30
2021/12/05 12:04:47;;;;;;;6.82;5.07;;;;;;;;;;5036887;28;20041;-31
2021/12/05 12:07:16;;;;;;;7.40;5.50;;;;;;;;;;5041296;28;20368;-32
2021/12/05 12:09:42;;;;;;;5.25;4.57;;;;;;;;;;5032570;28;20079;-32
2021/12/05 12:12:10;;;;;;;5.47;4.78;;;;;;;;;;5043465;28;20065;-31
2021/12/05 12:14:37;;;;;;;6.20;5.22;;;;;;;;;;5036879;28;20038;-32
2021/12/05 12:17:07;;;;;;;6.18;5.60;;;;;;;;;;5030084;28;20075;-31
2021/12/05 12:19:36;;;;;;;8.60;5.15;;;;;;;;;;5041679;28;20052;-31
2021/12/05 12:22:05;;;;;;;6.90;5.35;;;;;;;;;;5043276;28;20043;-31
2021/12/05 12:24:32;;;;;;;6.05;5.20;;;;;;;;;;5044755;28;20521;-31
2021/12/05 12:26:58;;;;;;;4.95;4.45;;;;;;;;;;5049248;28;20473;-31
2021/12/05 12:29:24;;;;;;;7.78;5.15;;;;;;;;;;5050013;28;20119;-32
2021/12/05 12:31:51;;;;;;;9.88;5.10;;;;;;;;;;5043545;28;20419;-31
2021/12/05 12:34:21;;;;;;;7.53;5.28;;;;;;;;;;5035992;28;20037;-31
2021/12/05 12:36:48;;;;;;;6.93;5.50;;;;;;;;;;5039343;28;20128;-31
2021/12/05 12:39:19;;;;;;;6.60;5.40;;;;;;;;;;5045817;28;20048;-31
2021/12/05 12:42:04;;;;;;;6.40;5.50;;;;;;;;;;5038736;28;20131;-31
2021/12/05 12:44:30;;;;;;;9.88;5.60;;;;;;;;;;5037305;28;20069;-31
2021/12/05 12:46:59;;;;;;;8.30;5.90;;;;;;;;;;5044031;28;20056;-31
2021/12/05 12:49:29;;;;;;;7.18;5.95;;;;;;;;;;5044689;28;20048;-33
2021/12/05 12:51:59;;;;;;;9.13;5.88;;;;;;;;;;5035539;28;20075;-32
2021/12/05 12:54:25;;;;;;;9.10;6.78;;;;;;;;;;5040669;28;20110;-31
2021/12/05 12:57:07;;;;;;;10.80;6.28;;;;;;;;;;5040671;28;20045;-34
2021/12/05 12:59:36;;;;;;;9.63;6.15;;;;;;;;;;5051762;28;20052;-31
2021/12/05 13:05:00;;;;;;;7.53;5.88;;;;;;;;;;5032442;28;20037;-32
2021/12/05 13:10:23;;;;;;;9.43;5.82;;;;;;;;;;5017559;28;20049;-33
2021/12/05 13:12:55;;;;;;;7.63;6.20;;;;;;;;;;5050811;28;20463;-31
2021/12/05 13:15:25;;;;;;;7.40;5.53;;;;;;;;;;5051365;28;20460;-31
2021/12/05 13:17:53;;;;;;;8.23;5.20;;;;;;;;;;5040111;28;20049;-31
2021/12/05 13:20:30;;;;;;;9.23;6.07;;;;;;;;;;5041924;28;20045;-33
2021/12/05 13:22:59;;;;;;;7.13;5.63;;;;;;;;;;5043991;28;20158;-32
2021/12/05 13:25:26;;;;;;;7.90;5.95;;;;;;;;;;5042473;28;20034;-31
2021/12/05 13:27:52;;;;;;;9.50;6.18;;;;;;;;;;5034000;28;20044;-35
2021/12/05 13:30:28;;;;;;;6.80;6.13;;;;;;;;;;5049499;28;20091;-33
2021/12/05 13:33:14;;;;;;;6.93;5.78;;;;;;;;;;5040383;28;20033;-30
2021/12/05 13:35:40;;;;;;;7.05;5.75;;;;;;;;;;5045513;28;20041;-33
2021/12/05 13:38:06;;;;;;;7.00;5.70;;;;;;;;;;5037150;28;20041;-28
2021/12/05 13:40:33;;;;;;;7.75;6.05;;;;;;;;;;5033408;28;20438;-30
2021/12/05 13:43:08;;;;;;;6.80;6.10;;;;;;;;;;5032869;28;20041;-28
2021/12/05 13:45:40;;;;;;;10.50;6.70;;;;;;;;;;5032964;28;20049;-28
2021/12/05 13:48:15;;;;;;;9.27;6.95;;;;;;;;;;5037650;28;20104;-30
2021/12/05 13:50:43;;;;;;;8.05;6.57;;;;;;;;;;5053130;28;20124;-30
2021/12/05 13:53:09;;;;;;;8.05;6.15;;;;;;;;;;5048456;28;20550;-30
2021/12/05 13:55:40;;;;;;;11.10;7.20;;;;;;;;;;5028116;28;20037;-29
2021/12/05 13:58:25;;;;;;;8.13;6.88;;;;;;;;;;5045742;28;20493;-30
2021/12/05 14:01:12;;;;;;;11.15;6.28;;;;;;;;;;5045729;28;20044;-30
2021/12/05 14:03:44;;;;;;;7.00;6.30;;;;;;;;;;5043967;28;20075;-31
2021/12/05 14:06:24;;;;;;;8.95;6.40;;;;;;;;;;5023085;28;20045;-32
2021/12/05 14:08:52;;;;;;;9.45;6.45;;;;;;;;;;5043951;28;20045;-31
2021/12/05 14:11:19;;;;;;;10.07;6.32;;;;;;;;;;5043675;28;20055;-31
2021/12/05 14:13:45;;;;;;;7.43;6.63;;;;;;;;;;5042649;28;20103;-31
2021/12/05 14:16:12;;;;;;;9.23;6.40;;;;;;;;;;5049021;28;20500;-33
2021/12/05 14:18:38;;;;;;;8.10;6.15;;;;;;;;;;5048133;28;20094;-34
2021/12/05 14:21:17;;;;;;;8.10;5.90;;;;;;;;;;5048947;28;20033;-31
2021/12/05 14:23:48;;;;;;;6.90;6.15;;;;;;;;;;5039962;28;20494;-31
2021/12/05 14:26:18;;;;;;;6.20;5.45;;;;;;;;;;5046443;28;20192;-34
2021/12/05 14:28:44;;;;;;;8.60;6.03;;;;;;;;;;5043633;28;20387;-37
2021/12/05 14:31:22;;;;;;;7.10;5.82;;;;;;;;;;5045957;28;20045;-33
2021/12/05 14:33:49;;;;;;;7.55;6.68;;;;;;;;;;5047035;28;20041;-33
2021/12/05 14:36:36;;;;;;;6.40;5.80;;;;;;;;;;5042967;28;20041;-35
2021/12/05 14:39:09;;;;;;;9.75;5.93;;;;;;;;;;5046088;28;20103;-37
2021/12/05 14:41:36;;;;;;;7.57;5.80;;;;;;;;;;5043467;28;20091;-36
2021/12/05 14:44:02;;;;;;;8.05;5.82;;;;;;;;;;5044794;28;20033;-34
2021/12/05 14:46:28;;;;;;;7.18;5.68;;;;;;;;;;5045458;28;20127;-34
2021/12/05 14:48:58;;;;;;;9.88;6.72;;;;;;;;;;5044696;28;20044;-37
2021/12/05 14:51:54;;;;;;;8.73;6.55;;;;;;;;;;5045796;28;20076;-34
2021/12/05 14:54:35;;;;;;;8.52;5.30;;;;;;;;;;5044950;28;20037;-36
2021/12/05 14:57:12;;;;;;;8.93;6.45;;;;;;;;;;5044530;28;20037;-36
2021/12/05 14:59:39;;;;;;;8.70;6.45;;;;;;;;;;5046418;28;20037;-34
2021/12/05 15:02:08;;;;;;;7.25;6.47;;;;;;;;;;5046995;28;20071;-34
2021/12/05 15:04:39;;;;;;;6.63;6.03;;;;;;;;;;5046404;28;20187;-33
2021/12/05 15:07:06;;;;;;;6.97;6.20;;;;;;;;;;5046635;28;20090;-34
2021/12/05 15:09:40;;;;;;;6.55;5.25;;;;;;;;;;5047225;28;20037;-33
2021/12/05 15:12:14;;;;;;;6.40;5.40;;;;;;;;;;5027345;28;20047;-31
2021/12/05 15:14:47;;;;;;;5.93;5.28;;;;;;;;;;5043426;28;20040;-34
2021/12/05 15:17:20;;;;;;;6.57;5.95;;;;;;;;;;5046684;28;20037;-35
2021/12/05 15:19:48;;;;;;;5.78;5.22;;;;;;;;;;5042137;28;20064;-38
2021/12/05 15:22:14;;;;;;;6.97;5.80;;;;;;;;;;5044441;28;20244;-36
2021/12/05 15:24:41;;;;;;;9.32;5.88;;;;;;;;;;5044447;28;20091;-33
2021/12/05 15:27:12;;;;;;;7.82;5.68;;;;;;;;;;5041898;28;20033;-34
2021/12/05 15:29:45;;;;;;;8.80;6.13;;;;;;;;;;5026033;28;20059;-35
2021/12/05 15:32:20;;;;;;;10.57;5.93;;;;;;;;;;5046025;28;20033;-38
2021/12/05 15:34:49;;;;;;;6.93;5.85;;;;;;;;;;5037731;28;20743;-34
2021/12/05 15:37:16;;;;;;;6.65;6.03;;;;;;;;;;5043772;28;20128;-36
2021/12/05 15:39:46;;;;;;;8.23;5.70;;;;;;;;;;5041288;28;20470;-32
2021/12/05 15:42:17;;;;;;;7.30;5.57;;;;;;;;;;5043985;28;20067;-35
2021/12/05 15:44:57;;;;;;;7.35;6.43;;;;;;;;;;5039755;28;20037;-33
2021/12/05 15:47:27;;;;;;;11.23;6.93;;;;;;;;;;5043931;28;20091;-33
2021/12/05 15:49:59;;;;;;;9.20;6.82;;;;;;;;;;5039809;28;20037;-33
2021/12/05 15:52:51;;;;;;;8.32;7.43;;;;;;;;;;5026287;28;20053;-33
2021/12/05 15:55:17;;;;;;;9.63;7.25;;;;;;;;;;4977260;28;20054;-37
2021/12/05 15:57:45;;;;;;;8.65;7.10;;;;;;;;;;5039470;28;20072;-35
2021/12/05 16:00:25;;;;;;;8.43;7.53;;;;;;;;;;5048252;28;20041;-30
2021/12/05 16:02:56;;;;;;;8.95;8.05;;;;;;;;;;5054310;28;20033;-31
2021/12/05 16:05:23;;;;;;;10.63;7.82;;;;;;;;;;5053511;28;20036;-30
2021/12/05 16:07:49;;;;;;;10.35;8.45;;;;;;;;;;5035920;28;20040;-30
2021/12/05 16:10:18;;;;;;;11.98;8.23;;;;;;;;;;5053786;28;20052;-30
2021/12/05 16:12:46;;;;;;;11.10;8.40;;;;;;;;;;5053650;28;20049;-30
2021/12/05 16:15:13;;;;;;;10.15;8.05;;;;;;;;;;5053731;28;20048;-30
2021/12/05 16:17:41;;;;;;;9.65;7.72;;;;;;;;;;5052022;28;20083;-29
2021/12/05 16:20:12;;;;;;;15.38;8.77;;;;;;;;;;5030978;28;20728;-30
2021/12/05 16:23:14;;;;;;;11.05;7.88;;;;;;;;;;5053292;28;20454;-30
2021/12/05 16:25:49;;;;;;;10.48;8.07;;;;;;;;;;4953977;29;20424;-30
2021/12/05 16:28:16;;;;;;;9.25;8.23;;;;;;;;;;5040088;28;20091;-37
2021/12/05 16:30:45;;;;;;;9.45;8.48;;;;;;;;;;5054163;28;20049;-31
2021/12/05 16:33:12;;;;;;;11.93;8.90;;;;;;;;;;5053519;28;20091;-31
2021/12/05 16:35:49;;;;;;;12.40;9.25;;;;;;;;;;5053884;28;20040;-30
2021/12/05 16:38:18;;;;;;;11.20;8.63;;;;;;;;;;5050128;28;20057;-33
2021/12/05 16:40:56;;;;;;;12.95;9.82;;;;;;;;;;5034923;28;20049;-33
2021/12/05 16:43:22;;;;;;;13.50;11.48;;;;;;;;;;5043391;28;20364;-34
2021/12/05 16:46:11;;;;;;;17.95;15.48;;;;;;;;;;5045525;28;20087;-33
2021/12/05 16:48:44;;;;;;;15.48;13.88;;;;;;;;;;5045054;28;20047;-33
2021/12/05 16:51:22;;;;;;;16.05;12.90;;;;;;;;;;5034084;28;20080;-31
2021/12/05 16:53:52;;;;;;;16.38;12.77;;;;;;;;;;5052572;28;20091;-31
2021/12/05 16:56:57;;;;;;;15.38;11.82;;;;;;;;;;5052175;28;20124;-29
2021/12/05 16:59:38;;;;;;;16.27;11.55;;;;;;;;;;4991650;28;20060;-29
2021/12/05 17:02:24;;;;;;;14.63;11.50;;;;;;;;;;5047126;28;20147;-32
2021/12/05 17:05:18;;;;;;;12.45;10.85;;;;;;;;;;5037384;28;20061;-31
2021/12/05 17:08:13;;;;;;;15.80;11.48;;;;;;;;;;5038800;28;20133;-30
2021/12/05 17:11:00;;;;;;;13.05;11.20;;;;;;;;;;5038659;28;20154;-30
2021/12/05 17:13:34;;;;;;;14.95;12.27;;;;;;;;;;5044416;28;20379;-30
2021/12/05 17:16:21;;;;;;;17.30;12.75;;;;;;;;;;5043214;28;20260;-30
2021/12/05 17:18:58;;;;;;;18.98;14.70;;;;;;;;;;5030879;28;20033;-30
2021/12/05 17:21:41;;;;;;;18.90;13.98;;;;;;;;;;5037579;28;20080;-31
2021/12/05 17:24:43;;;;;;;17.85;14.52;;;;;;;;;;5048715;28;20581;-30
2021/12/05 17:27:43;;;;;;;27.25;19.65;;;;;;;;;;5003858;28;20049;-30
2021/12/05 17:30:05;;;;;;;27.35;20.80;;;;;;;;;;5034496;28;20190;-30
2021/12/05 17:32:43;;;;;;;24.63;19.15;;;;;;;;;;5038139;28;20053;-32
2021/12/05 17:35:25;;;;;;;24.17;17.40;;;;;;;;;;5040184;28;20032;-32
2021/12/05 17:37:57;;;;;;;23.85;15.23;;;;;;;;;;5046584;28;20041;-30
2021/12/05 17:40:25;;;;;;;22.30;16.88;;;;;;;;;;5045177;28;20076;-32
2021/12/05 17:42:51;;;;;;;23.77;14.13;;;;;;;;;;5034667;28;20114;-32
2021/12/05 17:45:24;;;;;;;22.73;15.63;;;;;;;;;;5040909;28;20036;-31
2021/12/05 17:47:53;;;;;;;22.88;16.30;;;;;;;;;;5051407;28;20383;-30
2021/12/05 17:50:20;;;;;;;22.27;15.65;;;;;;;;;;5052684;28;20041;-31
2021/12/05 17:52:50;;;;;;;23.13;15.80;;;;;;;;;;5052467;28;20445;-29
2021/12/05 17:55:29;;;;;;;21.60;15.13;;;;;;;;;;5051789;28;20124;-31
2021/12/05 17:58:49;;;;;;;21.38;15.95;;;;;;;;;;5051662;28;20493;-29
2021/12/05 18:02:36;;;;;;;24.38;17.15;;;;;;;;;;5051991;28;20048;-30
2021/12/05 18:03:43;;;;;;;19.48;15.23;;;;;;;;;;5051735;28;20074;-30
2021/12/05 18:06:15;;;;;;;25.58;16.02;;;;;;;;;;5052010;28;20431;-30
2021/12/05 18:08:47;;;;;;;26.95;16.55;;;;;;;;;;5052555;28;20040;-29
2021/12/05 18:11:20;;;;;;;23.40;17.58;;;;;;;;;;5051996;28;20041;-29
2021/12/05 18:13:57;;;;;;;26.40;16.83;;;;;;;;;;5052153;28;20049;-30
2021/12/05 18:16:27;;;;;;;22.73;16.35;;;;;;;;;;5051824;28;20084;-30
2021/12/05 18:18:58;;;;;;;21.92;15.70;;;;;;;;;;5051332;28;20037;-32
2021/12/05 18:21:25;;;;;;;25.33;16.13;;;;;;;;;;5051325;28;20037;-28
2021/12/05 18:23:56;;;;;;;21.67;16.17;;;;;;;;;;5051868;28;20150;-30
2021/12/05 18:26:34;;;;;;;23.17;16.40;;;;;;;;;;5033439;28;20045;-31
2021/12/05 18:29:00;;;;;;;24.73;16.42;;;;;;;;;;5051375;28;20163;-30
2021/12/05 18:31:34;;;;;;;30.02;18.20;;;;;;;;;;5051275;28;20045;-29
2021/12/05 18:34:02;;;;;;;30.75;18.40;;;;;;;;;;5034108;28;20045;-30
2021/12/05 18:36:34;;;;;;;27.27;18.35;;;;;;;;;;5051373;28;20444;-30
2021/12/05 18:39:10;;;;;;;32.72;21.52;;;;;;;;;;5050692;28;20053;-33
2021/12/05 18:44:14;;;;;;;32.90;20.75;;;;;;;;;;5088371;28;20040;-29
2021/12/05 18:46:42;;;;;;;32.88;20.52;;;;;;;;;;5078555;28;20051;-29
2021/12/05 18:49:08;;;;;;;30.65;20.05;;;;;;;;;;5087757;28;20050;-32
2021/12/05 18:51:34;;;;;;;33.85;21.52;;;;;;;;;;5086324;28;20051;-28
2021/12/05 18:54:03;;;;;;;37.72;24.17;;;;;;;;;;5084040;28;20089;-30
2021/12/05 18:56:30;;;;;;;39.88;24.02;;;;;;;;;;5089871;28;20040;-31
2021/12/05 18:58:59;;;;;;;39.25;22.80;;;;;;;;;;5088208;28;20076;-30
2021/12/05 19:06:48;;;;;;;40.38;24.38;;;;;;;;;;5084282;28;20455;-31
2021/12/05 19:12:02;;;;;;;42.38;24.83;;;;;;;;;;5089417;28;20044;-32
2021/12/05 19:14:38;;;;;;;47.67;26.55;;;;;;;;;;5087648;28;20040;-32
2021/12/05 19:17:09;;;;;;;44.58;25.58;;;;;;;;;;5062653;28;20047;-31
2021/12/05 19:19:38;;;;;;;44.88;26.55;;;;;;;;;;5087681;28;20397;-32
2021/12/05 19:22:09;;;;;;;40.20;24.65;;;;;;;;;;5087903;28;20043;-31
2021/12/05 19:24:35;;;;;;;47.15;27.63;;;;;;;;;;5087196;28;20036;-31
2021/12/05 19:27:02;;;;;;;39.55;25.40;;;;;;;;;;5088915;28;20032;-32
2021/12/05 19:29:32;;;;;;;42.88;25.27;;;;;;;;;;5086513;28;20042;-31
2021/12/05 19:31:59;;;;;;;48.00;26.85;;;;;;;;;;5090908;28;20071;-32
2021/12/05 19:34:34;;;;;;;43.92;27.48;;;;;;;;;;5087408;28;20039;-35
2021/12/05 19:37:01;;;;;;;48.20;26.35;;;;;;;;;;5087243;28;20046;-31
2021/12/05 19:39:29;;;;;;;47.25;25.30;;;;;;;;;;5087432;28;20032;-32
2021/12/05 19:41:56;;;;;;;49.15;27.30;;;;;;;;;;5088681;28;20093;-33
2021/12/05 19:44:23;;;;;;;41.42;25.40;;;;;;;;;;5085107;28;20497;-32
2021/12/05 19:46:50;;;;;;;42.17;24.42;;;;;;;;;;5086642;28;20074;-32
2021/12/05 19:49:16;;;;;;;45.97;26.27;;;;;;;;;;5088739;28;21523;-31
2021/12/05 19:51:45;;;;;;;45.42;24.42;;;;;;;;;;5083057;28;20058;-31
2021/12/05 19:54:13;;;;;;;46.38;25.83;;;;;;;;;;5081772;28;20067;-33
2021/12/05 19:56:43;;;;;;;48.70;26.38;;;;;;;;;;5083541;28;20044;-36
2021/12/05 19:59:10;;;;;;;44.92;26.35;;;;;;;;;;5084440;28;20060;-32
2021/12/05 20:01:36;;;;;;;41.80;25.90;;;;;;;;;;5071514;28;20119;-33
2021/12/05 20:04:03;;;;;;;47.97;25.77;;;;;;;;;;5078747;28;20358;-33
2021/12/05 20:06:39;;;;;;;43.45;25.75;;;;;;;;;;5076874;28;20063;-34
2021/12/05 20:09:07;;;;;;;44.30;24.55;;;;;;;;;;5085233;28;20107;-34
2021/12/05 20:11:33;;;;;;;51.28;29.20;;;;;;;;;;5081965;28;20606;-34
2021/12/05 20:13:59;;;;;;;47.45;26.08;;;;;;;;;;5084993;28;20036;-33
2021/12/05 20:16:27;;;;;;;41.35;25.38;;;;;;;;;;5077549;28;20029;-35
2021/12/05 20:18:53;;;;;;;42.92;26.55;;;;;;;;;;5078703;28;20116;-35
2021/12/05 20:21:19;;;;;;;47.45;26.73;;;;;;;;;;5076259;28;20048;-35
2021/12/05 20:23:54;;;;;;;44.30;25.65;;;;;;;;;;5083464;28;20052;-34
2021/12/05 20:26:22;;;;;;;38.42;22.52;;;;;;;;;;5086471;28;20035;-34
2021/12/05 20:28:49;;;;;;;41.40;24.10;;;;;;;;;;5086735;28;20481;-33